createdAt,value
2023-01-17T00:02:16.013Z,99226.81
2023-01-17T00:05:01.278Z,99225.19
2023-01-17T00:07:49.470Z,99213.47
2023-01-17T00:10:18.233Z,99216.06
2023-01-17T00:12:59.087Z,99226.34
2023-01-17T00:15:27.288Z,99213.59
2023-01-17T00:17:54.576Z,99216.94
2023-01-17T00:20:43.148Z,99218.66
2023-01-17T00:23:37.908Z,99212.00
2023-01-17T00:26:09.808Z,99219.59
2023-01-17T00:28:38.837Z,99210.28
2023-01-17T00:31:07.735Z,99201.84
2023-01-17T00:33:34.757Z,99200.28
2023-01-17T00:36:02.971Z,99203.59
2023-01-17T00:38:32.208Z,99192.78
2023-01-17T00:41:07.619Z,99196.22
2023-01-17T00:43:53.597Z,99207.81
2023-01-17T00:46:39.343Z,99195.06
2023-01-17T00:49:25.024Z,99201.84
2023-01-17T00:52:10.883Z,99204.38
2023-01-17T00:54:56.144Z,99206.91
2023-01-17T00:57:42.076Z,99205.34
2023-01-17T01:00:27.804Z,99205.34
2023-01-17T01:03:13.036Z,99209.53
2023-01-17T01:05:58.158Z,99217.19
2023-01-17T01:08:47.127Z,99208.06
2023-01-17T01:11:40.257Z,99215.75
2023-01-17T01:14:28.207Z,99213.13
2023-01-17T01:17:13.594Z,99205.59
2023-01-17T01:19:58.897Z,99199.75
2023-01-17T01:22:44.452Z,99193.84
2023-01-17T01:25:29.744Z,99201.66
2023-01-17T01:28:26.158Z,99202.78
2023-01-17T01:31:11.866Z,99201.91
2023-01-17T01:33:38.618Z,99204.44
2023-01-17T01:36:07.986Z,99201.91
2023-01-17T01:38:34.916Z,99195.16
2023-01-17T01:41:01.661Z,99191.84
2023-01-17T01:43:49.602Z,99197.97
2023-01-17T01:46:39.762Z,99200.50
2023-01-17T01:49:12.893Z,99191.97
2023-01-17T01:51:44.489Z,99181.84
2023-01-17T01:54:24.193Z,99176.88
2023-01-17T01:56:54.611Z,99186.22
2023-01-17T01:59:23.499Z,99177.81
2023-01-17T02:01:53.293Z,99188.81
2023-01-17T02:04:22.470Z,99191.44
2023-01-17T02:06:59.198Z,99191.53
2023-01-17T02:09:27.175Z,99189.81
2023-01-17T02:11:54.589Z,99186.47
2023-01-17T02:14:22.826Z,99188.22
2023-01-17T02:17:04.858Z,99183.41
2023-01-17T02:19:49.901Z,99191.06
2023-01-17T02:22:53.988Z,99187.66
2023-01-17T02:25:23.573Z,99183.34
2023-01-17T02:27:56.179Z,99185.13
2023-01-17T02:30:45.569Z,99178.44
2023-01-17T02:33:31.382Z,99171.75
2023-01-17T02:36:17.888Z,99166.69
2023-01-17T02:39:02.591Z,99166.69
2023-01-17T02:41:45.734Z,99167.63
2023-01-17T02:44:18.266Z,99173.50
2023-01-17T02:46:47.071Z,99161.59
2023-01-17T02:49:16.146Z,99165.88
2023-01-17T02:51:48.473Z,99164.28
2023-01-17T02:54:38.394Z,99167.94
2023-01-17T02:57:05.078Z,99162.72
2023-01-17T02:59:40.850Z,99166.19
2023-01-17T03:02:17.753Z,99167.94
2023-01-17T03:05:29.581Z,99152.84
2023-01-17T03:07:57.732Z,99155.25
2023-01-17T03:10:25.083Z,99155.31
2023-01-17T03:12:57.754Z,99145.25
2023-01-17T03:15:24.539Z,99148.63
2023-01-17T03:17:55.369Z,99152.09
2023-01-17T03:20:22.740Z,99158.91
2023-01-17T03:22:49.651Z,99153.69
2023-01-17T03:25:16.808Z,99145.16
2023-01-17T03:27:43.593Z,99152.84
2023-01-17T03:30:11.067Z,99150.25
2023-01-17T03:32:37.898Z,99151.84
2023-01-17T03:35:05.026Z,99146.78
2023-01-17T03:37:32.020Z,99139.97
2023-01-17T03:39:58.744Z,99146.78
2023-01-17T03:42:25.453Z,99148.50
2023-01-17T03:44:52.189Z,99139.97
2023-01-17T03:47:18.921Z,99146.78
2023-01-17T03:49:45.677Z,99135.81
2023-01-17T03:52:12.417Z,99140.88
2023-01-17T03:54:39.264Z,99146.78
2023-01-17T03:57:06.271Z,99139.97
2023-01-17T03:59:34.066Z,99145.09
2023-01-17T04:02:01.347Z,99143.28
2023-01-17T04:04:28.208Z,99144.25
2023-01-17T04:06:54.942Z,99148.38
2023-01-17T04:09:21.678Z,99148.38
2023-01-17T04:11:50.887Z,99156.94
2023-01-17T04:14:17.780Z,99152.72
2023-01-17T04:16:44.720Z,99158.72
2023-01-17T04:19:13.494Z,99158.78
2023-01-17T04:21:40.274Z,99156.16
2023-01-17T04:24:07.340Z,99163.78
2023-01-17T04:26:34.126Z,99163.03
2023-01-17T04:29:00.917Z,99170.78
2023-01-17T04:31:27.759Z,99155.63
2023-01-17T04:33:54.518Z,99161.69
2023-01-17T04:36:21.355Z,99157.53
2023-01-17T04:38:48.066Z,99160.97
2023-01-17T04:41:14.865Z,99159.38
2023-01-17T04:43:41.590Z,99172.19
2023-01-17T04:46:10.165Z,99161.97
2023-01-17T04:48:37.042Z,99167.19
2023-01-17T04:51:05.262Z,99168.09
2023-01-17T04:53:32.466Z,99168.16
2023-01-17T04:55:59.342Z,99167.38
2023-01-17T04:58:26.592Z,99165.63
2023-01-17T05:00:53.491Z,99162.28
2023-01-17T05:03:22.506Z,99168.28
2023-01-17T05:05:49.470Z,99168.28
2023-01-17T05:08:16.282Z,99169.16
2023-01-17T05:10:46.061Z,99168.28
2023-01-17T05:13:13.351Z,99166.56
2023-01-17T05:15:40.306Z,99166.56
2023-01-17T05:18:08.769Z,99167.41
2023-01-17T05:20:36.689Z,99166.56
2023-01-17T05:23:03.529Z,99171.63
2023-01-17T05:25:32.399Z,99168.38
2023-01-17T05:28:02.586Z,99170.00
2023-01-17T05:30:31.853Z,99171.75
2023-01-17T05:32:59.397Z,99171.75
2023-01-17T05:35:29.338Z,99168.38
2023-01-17T05:37:56.590Z,99169.28
2023-01-17T05:40:26.016Z,99175.22
2023-01-17T05:42:54.893Z,99172.63
2023-01-17T05:45:23.357Z,99172.63
2023-01-17T05:47:53.045Z,99165.06
2023-01-17T05:50:23.349Z,99175.22
2023-01-17T05:53:17.363Z,99176.13
2023-01-17T05:55:44.874Z,99177.75
2023-01-17T05:58:18.088Z,99175.34
2023-01-17T06:00:45.599Z,99178.69
2023-01-17T06:03:12.832Z,99174.47
2023-01-17T06:05:39.690Z,99179.59
2023-01-17T06:08:06.782Z,99172.91
2023-01-17T06:10:33.907Z,99173.72
2023-01-17T06:13:06.238Z,99172.88
2023-01-17T06:15:35.512Z,99180.53
2023-01-17T06:18:13.680Z,99176.41
2023-01-17T06:20:40.641Z,99185.56
2023-01-17T06:23:10.735Z,99183.13
2023-01-17T06:25:43.673Z,99178.03
2023-01-17T06:28:12.079Z,99181.47
2023-01-17T06:30:39.125Z,99179.78
2023-01-17T06:33:06.468Z,99184.09
2023-01-17T06:35:33.610Z,99184.22
2023-01-17T06:38:00.677Z,99175.81
2023-01-17T06:40:29.363Z,99182.63
2023-01-17T06:43:04.133Z,99167.63
2023-01-17T06:45:32.215Z,99179.38
2023-01-17T06:48:01.090Z,99177.78
2023-01-17T06:50:27.930Z,99180.34
2023-01-17T06:53:05.742Z,99170.41
2023-01-17T06:55:34.028Z,99176.28
2023-01-17T06:58:02.701Z,99173.84
2023-01-17T07:00:31.409Z,99183.22
2023-01-17T07:02:58.387Z,99179.06
2023-01-17T07:05:25.416Z,99183.31
2023-01-17T07:07:53.169Z,99178.22
2023-01-17T07:10:20.125Z,99186.81
2023-01-17T07:12:46.898Z,99179.28
2023-01-17T07:15:13.790Z,99186.97
2023-01-17T07:17:40.515Z,99182.00
2023-01-17T07:20:08.055Z,99186.31
2023-01-17T07:22:35.427Z,99185.59
2023-01-17T07:25:02.259Z,99190.72
2023-01-17T07:27:31.160Z,99196.72
2023-01-17T07:29:58.200Z,99187.50
2023-01-17T07:32:26.686Z,99181.63
2023-01-17T07:34:54.484Z,99179.22
2023-01-17T07:37:21.327Z,99191.16
2023-01-17T07:39:48.088Z,99169.25
2023-01-17T07:42:15.218Z,99181.19
2023-01-17T07:44:44.087Z,99176.16
2023-01-17T07:47:11.417Z,99184.69
2023-01-17T07:49:38.433Z,99183.06
2023-01-17T07:52:08.750Z,99178.13
2023-01-17T07:54:35.803Z,99186.66
2023-01-17T07:57:03.172Z,99191.75
2023-01-17T07:59:29.987Z,99180.78
2023-01-17T08:01:56.831Z,99186.78
2023-01-17T08:04:26.345Z,99184.38
2023-01-17T08:06:55.006Z,99192.06
2023-01-17T08:09:22.103Z,99188.78
2023-01-17T08:11:49.114Z,99193.03
2023-01-17T08:14:16.030Z,99202.47
2023-01-17T08:16:42.899Z,99200.03
2023-01-17T08:19:10.460Z,99199.34
2023-01-17T08:21:37.378Z,99196.81
2023-01-17T08:24:04.527Z,99190.16
2023-01-17T08:26:31.283Z,99188.56
2023-01-17T08:29:02.511Z,99180.94
2023-01-17T08:31:32.194Z,99187.84
2023-01-17T08:33:59.487Z,99187.03
2023-01-17T08:36:27.733Z,99184.59
2023-01-17T08:38:55.569Z,99185.56
2023-01-17T08:41:24.317Z,99191.50
2023-01-17T08:43:52.226Z,99183.19
2023-01-17T08:46:19.448Z,99181.56
2023-01-17T08:48:46.591Z,99177.41
2023-01-17T08:51:13.851Z,99196.94
2023-01-17T08:53:40.833Z,99170.84
2023-01-17T08:56:07.799Z,99180.25
2023-01-17T08:58:35.895Z,99176.19
2023-01-17T09:01:05.189Z,99183.06
2023-01-17T09:03:33.033Z,99178.84
2023-01-17T09:06:04.911Z,99178.94
2023-01-17T09:08:32.052Z,99170.72
2023-01-17T09:10:58.919Z,99171.41
2023-01-17T09:13:25.623Z,99165.63
2023-01-17T09:15:57.049Z,99168.19
2023-01-17T09:18:25.582Z,99166.59
2023-01-17T09:20:57.790Z,99170.91
2023-01-17T09:23:25.998Z,99171.00
2023-01-17T09:25:57.195Z,99167.63
2023-01-17T09:28:25.426Z,99170.28
2023-01-17T09:30:53.589Z,99165.31
2023-01-17T09:33:23.207Z,99157.66
2023-01-17T09:35:50.160Z,99169.59
2023-01-17T09:38:17.105Z,99159.47
2023-01-17T09:40:48.824Z,99166.38
2023-01-17T09:43:26.687Z,99165.69
2023-01-17T09:45:53.551Z,99163.16
2023-01-17T09:48:33.845Z,99175.16
2023-01-17T09:51:14.661Z,99163.22
2023-01-17T09:53:43.996Z,99159.88
2023-01-17T09:56:17.129Z,99172.66
2023-01-17T09:59:11.855Z,99167.00
2023-01-17T10:02:12.005Z,99166.16
2023-01-17T10:04:44.782Z,99178.09
2023-01-17T10:07:42.304Z,99163.72
2023-01-17T10:10:42.043Z,99165.44
2023-01-17T10:13:27.784Z,99164.63
2023-01-17T10:16:24.714Z,99164.72
2023-01-17T10:19:14.094Z,99173.13
2023-01-17T10:22:10.215Z,99163.91
2023-01-17T10:24:52.141Z,99173.16
2023-01-17T10:27:25.162Z,99160.44
2023-01-17T10:29:52.552Z,99172.38
2023-01-17T10:32:22.461Z,99165.53
2023-01-17T10:34:52.135Z,99158.91
2023-01-17T10:37:37.091Z,99142.84
2023-01-17T10:40:18.694Z,99150.63
2023-01-17T10:43:01.579Z,99154.09
2023-01-17T10:45:29.821Z,99144.75
2023-01-17T10:48:15.556Z,99154.28
2023-01-17T10:50:58.489Z,99156.03
2023-01-17T10:53:39.841Z,99150.16
2023-01-17T10:56:07.605Z,99147.50
2023-01-17T10:58:34.401Z,99142.34
2023-01-17T11:01:07.103Z,99148.34
2023-01-17T11:03:34.809Z,99150.09
2023-01-17T11:06:27.128Z,99158.69
2023-01-17T11:08:53.983Z,99158.59
2023-01-17T11:11:24.738Z,99151.09
2023-01-17T11:13:54.946Z,99150.38
2023-01-17T11:16:26.714Z,99158.09
2023-01-17T11:19:16.239Z,99153.19
2023-01-17T11:21:54.898Z,99154.97
2023-01-17T11:24:39.096Z,99146.63
2023-01-17T11:27:08.010Z,99139.88
2023-01-17T11:29:39.983Z,99138.22
2023-01-17T11:32:29.033Z,99136.75
2023-01-17T11:35:20.083Z,99144.50
2023-01-17T11:37:51.131Z,99146.94
2023-01-17T11:40:25.042Z,99143.59
2023-01-17T11:43:06.272Z,99159.75
2023-01-17T11:45:35.032Z,99141.78
2023-01-17T11:48:07.864Z,99140.94
2023-01-17T11:50:37.740Z,99152.03
2023-01-17T11:53:22.738Z,99153.88
2023-01-17T11:56:05.313Z,99153.03
2023-01-17T11:58:35.806Z,99156.44
2023-01-17T12:01:20.727Z,99152.34
2023-01-17T12:04:10.694Z,99159.16
2023-01-17T12:06:57.806Z,99154.03
2023-01-17T12:09:47.914Z,99162.59
2023-01-17T12:12:57.840Z,99158.41
2023-01-17T12:15:33.825Z,99156.78
2023-01-17T12:18:15.237Z,99159.41
2023-01-17T12:21:06.675Z,99168.84
2023-01-17T12:23:55.906Z,99154.56
2023-01-17T12:26:31.863Z,99156.38
2023-01-17T12:29:09.504Z,99156.47
2023-01-17T12:31:47.342Z,99144.63
2023-01-17T12:34:58.742Z,99161.81
2023-01-17T12:37:39.031Z,99148.31
2023-01-17T12:40:24.858Z,99140.66
2023-01-17T12:43:07.858Z,99157.69
2023-01-17T12:45:46.036Z,99145.84
2023-01-17T12:48:20.646Z,99148.38
2023-01-17T12:50:50.485Z,99153.56
2023-01-17T12:53:40.569Z,99157.84
2023-01-17T12:56:19.493Z,99149.38
2023-01-17T12:58:52.344Z,99141.72
2023-01-17T13:01:28.522Z,99159.59
2023-01-17T13:04:11.614Z,99157.09
2023-01-17T13:06:44.553Z,99167.44
2023-01-17T13:09:17.031Z,99149.63
2023-01-17T13:11:54.519Z,99147.97
2023-01-17T13:14:21.308Z,99151.31
2023-01-17T13:17:00.703Z,99157.41
2023-01-17T13:19:36.597Z,99151.44
2023-01-17T13:22:07.410Z,99148.03
2023-01-17T13:24:49.277Z,99141.31
2023-01-17T13:27:26.456Z,99152.31
2023-01-17T13:30:22.094Z,99145.59
2023-01-17T13:33:20.607Z,99147.38
2023-01-17T13:36:29.989Z,99140.63
2023-01-17T13:39:34.683Z,99127.75
2023-01-17T13:42:23.187Z,99132.06
2023-01-17T13:44:51.299Z,99139.59
2023-01-17T13:47:18.067Z,99125.97
2023-01-17T13:49:48.518Z,99138.72
2023-01-17T13:52:21.312Z,99123.41
2023-01-17T13:54:50.898Z,99114.84
2023-01-17T13:57:23.680Z,99125.13
2023-01-17T13:59:50.471Z,99132.75
2023-01-17T14:02:32.296Z,99127.75
2023-01-17T14:05:23.454Z,99118.41
2023-01-17T14:07:59.261Z,99124.22
2023-01-17T14:10:47.049Z,99111.41
2023-01-17T14:13:34.908Z,99119.22
2023-01-17T14:16:03.514Z,99117.47
2023-01-17T14:18:36.792Z,99121.75
2023-01-17T14:21:24.230Z,99122.69
2023-01-17T14:24:20.486Z,99118.44
2023-01-17T14:27:16.741Z,99118.44
2023-01-17T14:29:49.547Z,99124.34
2023-01-17T14:32:21.088Z,99129.50
2023-01-17T14:34:50.498Z,99117.59
2023-01-17T14:37:27.282Z,99110.84
2023-01-17T14:39:54.055Z,99119.28
2023-01-17T14:42:23.754Z,99112.50
2023-01-17T14:45:05.529Z,99124.50
2023-01-17T14:47:36.200Z,99129.50
2023-01-17T14:50:10.423Z,99115.91
2023-01-17T14:52:37.207Z,99114.16
2023-01-17T14:55:15.444Z,99116.75
2023-01-17T14:57:42.923Z,99108.16
2023-01-17T15:00:20.254Z,99121.84
2023-01-17T15:02:49.140Z,99112.34
2023-01-17T15:05:18.918Z,99111.47
2023-01-17T15:07:50.696Z,99107.19
2023-01-17T15:10:21.274Z,99108.81
2023-01-17T15:12:48.236Z,99109.66
2023-01-17T15:15:35.447Z,99105.47
2023-01-17T15:18:18.141Z,99102.06
2023-01-17T15:20:57.246Z,99101.13
2023-01-17T15:23:30.608Z,99099.38
2023-01-17T15:25:58.176Z,99100.13
2023-01-17T15:28:25.403Z,99106.06
2023-01-17T15:31:09.226Z,99111.28
2023-01-17T15:33:39.287Z,99112.06
2023-01-17T15:36:09.665Z,99118.09
2023-01-17T15:38:39.544Z,99118.09
2023-01-17T15:41:13.623Z,99124.91
2023-01-17T15:43:41.795Z,99130.00
2023-01-17T15:46:22.996Z,99116.47
2023-01-17T15:48:51.792Z,99116.44
2023-01-17T15:51:46.076Z,99123.41
2023-01-17T15:54:34.365Z,99126.78
2023-01-17T15:57:37.539Z,99123.41
2023-01-17T16:00:20.305Z,99111.41
2023-01-17T16:02:58.890Z,99112.28
2023-01-17T16:05:27.680Z,99111.28
2023-01-17T16:08:04.375Z,99121.53
2023-01-17T16:10:35.673Z,99119.78
2023-01-17T16:13:04.299Z,99112.97
2023-01-17T16:15:31.519Z,99115.53
2023-01-17T16:18:01.390Z,99115.53
2023-01-17T16:20:36.737Z,99117.38
2023-01-17T16:23:03.820Z,99113.84
2023-01-17T16:25:32.701Z,99114.59
2023-01-17T16:28:00.193Z,99117.16
2023-01-17T16:30:27.518Z,99112.81
2023-01-17T16:32:56.517Z,99118.75
2023-01-17T16:35:30.152Z,99107.69
2023-01-17T16:37:59.389Z,99101.66
2023-01-17T16:40:29.400Z,99117.78
2023-01-17T16:42:57.302Z,99123.59
2023-01-17T16:45:24.943Z,99120.94
2023-01-17T16:47:53.649Z,99123.44
2023-01-17T16:50:23.242Z,99116.59
2023-01-17T16:52:54.862Z,99115.66
2023-01-17T16:55:25.260Z,99127.47
2023-01-17T16:57:56.171Z,99132.44
2023-01-17T17:00:23.283Z,99117.03
2023-01-17T17:02:51.312Z,99122.03
2023-01-17T17:05:18.796Z,99138.13
2023-01-17T17:07:50.751Z,99112.44
2023-01-17T17:10:21.232Z,99108.94
2023-01-17T17:12:48.141Z,99114.72
2023-01-17T17:15:14.896Z,99099.50
2023-01-17T17:17:43.394Z,99108.69
2023-01-17T17:20:13.035Z,99105.28
2023-01-17T17:22:42.586Z,99106.09
2023-01-17T17:25:10.410Z,99118.00
2023-01-17T17:27:37.442Z,99107.81
2023-01-17T17:30:05.097Z,99097.53
2023-01-17T17:32:32.671Z,99118.78
2023-01-17T17:35:00.335Z,99104.25
2023-01-17T17:37:34.060Z,99105.91
2023-01-17T17:40:01.288Z,99112.66
2023-01-17T17:42:28.504Z,99109.19
2023-01-17T17:44:55.879Z,99108.34
2023-01-17T17:47:24.287Z,99133.84
2023-01-17T17:49:51.483Z,99128.69
2023-01-17T17:52:18.667Z,99113.50
2023-01-17T17:54:45.971Z,99119.38
2023-01-17T17:57:12.831Z,99124.53
2023-01-17T17:59:39.579Z,99126.22
2023-01-17T18:02:10.995Z,99119.28
2023-01-17T18:04:38.193Z,99120.19
2023-01-17T18:07:05.153Z,99112.50
2023-01-17T18:09:31.967Z,99114.19
2023-01-17T18:11:58.872Z,99115.94
2023-01-17T18:14:25.794Z,99111.66
2023-01-17T18:16:52.668Z,99123.59
2023-01-17T18:19:26.492Z,99131.41
2023-01-17T18:21:53.999Z,99129.72
2023-01-17T18:24:23.166Z,99113.50
2023-01-17T18:26:56.072Z,99126.28
2023-01-17T18:29:24.004Z,99117.78
2023-01-17T18:31:53.484Z,99129.69
2023-01-17T18:34:27.242Z,99137.41
2023-01-17T18:36:54.857Z,99128.84
2023-01-17T18:39:24.822Z,99130.53
2023-01-17T18:41:52.355Z,99141.59
2023-01-17T18:44:22.745Z,99129.69
2023-01-17T18:46:53.927Z,99132.25
2023-01-17T18:49:21.279Z,99136.44
2023-01-17T18:51:51.845Z,99124.50
2023-01-17T18:54:20.002Z,99127.03
2023-01-17T18:56:47.066Z,99129.69
2023-01-17T18:59:16.104Z,99127.09
2023-01-17T19:01:43.724Z,99120.28
2023-01-17T19:04:13.541Z,99111.88
2023-01-17T19:06:42.958Z,99108.34
2023-01-17T19:09:12.429Z,99108.28
2023-01-17T19:11:40.010Z,99103.09
2023-01-17T19:14:07.692Z,99103.84
2023-01-17T19:16:39.365Z,99107.16
2023-01-17T19:19:13.012Z,99096.84
2023-01-17T19:21:40.062Z,99093.41
2023-01-17T19:24:08.445Z,99095.09
2023-01-17T19:26:35.497Z,99114.59
2023-01-17T19:29:06.884Z,99117.97
2023-01-17T19:31:39.950Z,99130.72
2023-01-17T19:34:06.817Z,99130.63
2023-01-17T19:36:35.888Z,99117.94
2023-01-17T19:39:06.696Z,99126.38
2023-01-17T19:41:36.685Z,99123.88
2023-01-17T19:44:09.149Z,99108.53
2023-01-17T19:46:37.323Z,99123.72
2023-01-17T19:49:06.754Z,99127.78
2023-01-17T19:51:33.903Z,99133.69
2023-01-17T19:54:01.793Z,99123.41
2023-01-17T19:56:29.361Z,99125.16
2023-01-17T19:59:01.801Z,99131.88
2023-01-17T20:01:31.861Z,99128.44
2023-01-17T20:04:00.439Z,99121.59
2023-01-17T20:06:33.442Z,99113.16
2023-01-17T20:09:00.362Z,99116.50
2023-01-17T20:11:28.530Z,99121.59
2023-01-17T20:13:57.784Z,99113.91
2023-01-17T20:16:27.335Z,99121.59
2023-01-17T20:18:54.392Z,99131.69
2023-01-17T20:21:26.668Z,99114.78
2023-01-17T20:23:55.123Z,99116.41
2023-01-17T20:26:25.182Z,99129.97
2023-01-17T20:28:52.421Z,99140.16
2023-01-17T20:31:22.783Z,99131.69
2023-01-17T20:33:51.175Z,99135.81
2023-01-17T20:36:20.289Z,99136.66
2023-01-17T20:38:48.627Z,99130.66
2023-01-17T20:41:21.443Z,99129.78
2023-01-17T20:43:54.060Z,99138.25
2023-01-17T20:46:24.368Z,99145.72
2023-01-17T20:48:53.648Z,99132.16
2023-01-17T20:51:21.499Z,99137.09
2023-01-17T20:53:53.651Z,99113.41
2023-01-17T20:56:20.591Z,99144.53
2023-01-17T20:58:47.630Z,99138.59
2023-01-17T21:01:21.899Z,99151.22
2023-01-17T21:03:51.731Z,99155.41
2023-01-17T21:06:20.394Z,99156.13
2023-01-17T21:08:48.011Z,99146.75
2023-01-17T21:11:18.053Z,99151.03
2023-01-17T21:13:45.293Z,99151.00
2023-01-17T21:16:14.256Z,99147.47
2023-01-17T21:18:41.155Z,99150.81
2023-01-17T21:21:13.786Z,99147.38
2023-01-17T21:23:42.027Z,99148.91
2023-01-17T21:26:12.030Z,99142.84
2023-01-17T21:28:40.717Z,99152.78
2023-01-17T21:31:19.522Z,99151.75
2023-01-17T21:34:07.004Z,99151.88
2023-01-17T21:36:37.600Z,99149.22
2023-01-17T21:39:12.042Z,99156.97
2023-01-17T21:41:41.156Z,99161.16
2023-01-17T21:44:15.156Z,99139.19
2023-01-17T21:46:41.983Z,99141.69
2023-01-17T21:49:13.288Z,99142.59
2023-01-17T21:51:54.206Z,99144.31
2023-01-17T21:54:43.078Z,99145.25
2023-01-17T21:57:29.277Z,99162.25
2023-01-17T21:59:56.312Z,99149.56
2023-01-17T22:02:23.304Z,99145.34
2023-01-17T22:04:50.227Z,99133.44
2023-01-17T22:07:17.162Z,99131.69
2023-01-17T22:09:43.997Z,99124.91
2023-01-17T22:12:10.727Z,99130.91
2023-01-17T22:14:38.334Z,99120.78
2023-01-17T22:17:05.244Z,99114.78
2023-01-17T22:19:32.022Z,99121.63
2023-01-17T22:21:58.748Z,99108.06
2023-01-17T22:24:25.771Z,99113.22
2023-01-17T22:26:52.555Z,99101.25
2023-01-17T22:29:19.454Z,99106.31
2023-01-17T22:31:46.322Z,99106.25
2023-01-17T22:34:13.963Z,99111.41
2023-01-17T22:36:40.915Z,99105.41
2023-01-17T22:39:09.275Z,99098.63
2023-01-17T22:41:38.208Z,99090.97
2023-01-17T22:44:08.578Z,99096.00
2023-01-17T22:46:38.489Z,99086.63
2023-01-17T22:49:08.907Z,99082.31
2023-01-17T22:51:35.719Z,99099.34
2023-01-17T22:54:02.585Z,99082.31
2023-01-17T22:56:32.120Z,99098.50
2023-01-17T22:59:00.841Z,99101.06
2023-01-17T23:01:29.896Z,99089.28
2023-01-17T23:04:01.280Z,99074.00
2023-01-17T23:06:30.764Z,99086.72
2023-01-17T23:09:00.003Z,99103.72
2023-01-17T23:11:39.722Z,99092.72
2023-01-17T23:14:08.153Z,99101.06
2023-01-17T23:16:54.063Z,99096.78
2023-01-17T23:19:24.267Z,99108.69
2023-01-17T23:22:15.219Z,99096.00
2023-01-17T23:24:50.971Z,99101.16
2023-01-17T23:27:38.537Z,99087.53
2023-01-17T23:30:11.150Z,99094.34
2023-01-17T23:32:39.373Z,99099.44
2023-01-17T23:35:07.016Z,99114.72
2023-01-17T23:37:52.266Z,99108.78
2023-01-17T23:40:19.385Z,99104.63
2023-01-17T23:43:05.050Z,99104.63
2023-01-17T23:45:34.985Z,99092.72
2023-01-17T23:48:02.072Z,99096.91
2023-01-17T23:50:28.823Z,99090.97
2023-01-17T23:52:55.881Z,99101.16
2023-01-17T23:55:23.177Z,99110.53
2023-01-17T23:57:51.805Z,99102.91
